PWSweather.com
Personal Weather Stations
Station Observations
MDHALE1
Southwest Baltimore Co., Halethorpe, MD 21227

Southwest Baltimore Co.Halethorpe, MD 21227

Lat: 39.23643, Lon: -76.696959

Elevation: 86

Station Type: Davis Vantage Pro2+

http://www.halethorpeweather.com

Latest ConditionsUpdated 7:45:01 AM EST Monday, Jan 16, 2017
Currently Today's Max Today's Min Today's Average
Temperature 34.0°F1.1°C 34.0°F1.1°C 31.5°F-0.3°C 32.9°F0.5°C
Dew Point 25.6°F-3.6°C 26.1°F-3.3°C 23.9°F-4.5°C 25.1°F-3.8°C
Winds Calm Calm 2.3 mph N3.7 kmh N - 0.1 mph 0.2 kmh
Wind Gusts -- 3.5 mph5.6 kmh - -
Humidity 71% 78% 70% 73%
Pressure 30.48 in1032.2 mb 30.48 in1032.2 mb 30.44 in1030.8 mb -
Hour Temp Dew Point Humidity Winds Wind Gusts Pressure Precip Precip Rate Daily Precip Total
07:45 AM 34.0°F1.1°C 25.6°F-3.6°C 71% Calm Calm -- 30.48 in1032.2 mb - 0.00 in0.0 mm 0.00 in0.0 mm
07:30 AM 33.9°F1.1°C 25.8°F-3.4°C 72% Calm Calm -- 30.48 in1032.2 mb - 0.00 in0.0 mm 0.00 in0.0 mm
07:15 AM 33.9°F1.1°C 25.5°F-3.6°C 71% Calm Calm -- 30.48 in1032.2 mb - 0.00 in0.0 mm 0.00 in0.0 mm
07:00 AM 33.9°F1.1°C 25.8°F-3.4°C 72% Calm Calm -- 30.47 in1031.8 mb - 0.00 in0.0 mm 0.00 in0.0 mm
06:45 AM 33.9°F1.1°C 25.8°F-3.4°C 72% Calm Calm 3.5 mph5.6 kmh 30.47 in1031.8 mb - 0.00 in0.0 mm 0.00 in0.0 mm
06:30 AM 33.8°F1.0°C 25.7°F-3.5°C 72% Calm Calm -- 30.48 in1032.2 mb - 0.00 in0.0 mm 0.00 in0.0 mm
06:15 AM 33.8°F1.0°C 26.1°F-3.3°C 73% Calm Calm -- 30.47 in1031.8 mb - 0.00 in0.0 mm 0.00 in0.0 mm
06:00 AM 33.8°F1.0°C 26.0°F-3.3°C 73% Calm Calm -- 30.46 in1031.5 mb - 0.00 in0.0 mm 0.00 in0.0 mm
05:45 AM 33.8°F1.0°C 25.7°F-3.5°C 72% Calm Calm -- 30.46 in1031.5 mb - 0.00 in0.0 mm 0.00 in0.0 mm
05:30 AM 33.8°F1.0°C 25.4°F-3.7°C 71% Calm Calm -- 30.46 in1031.5 mb - 0.00 in0.0 mm 0.00 in0.0 mm
05:15 AM 33.7°F0.9°C 25.3°F-3.7°C 71% Calm Calm 2.3 mph3.7 kmh 30.46 in1031.5 mb - 0.00 in0.0 mm 0.00 in0.0 mm
05:00 AM 33.4°F0.8°C 25.0°F-3.9°C 71% Calm Calm -- 30.46 in1031.5 mb - 0.00 in0.0 mm 0.00 in0.0 mm
04:45 AM 33.2°F0.7°C 24.8°F-4.0°C 71% 2.3 mph N3.7 kmh N 3.5 mph5.6 kmh 30.46 in1031.5 mb - 0.00 in0.0 mm 0.00 in0.0 mm
04:30 AM 32.9°F0.5°C 24.8°F-4.0°C 72% Calm Calm -- 30.46 in1031.5 mb - 0.00 in0.0 mm 0.00 in0.0 mm
04:15 AM 32.6°F0.3°C 24.9°F-3.9°C 73% Calm Calm 2.3 mph3.7 kmh 30.45 in1031.2 mb - 0.00 in0.0 mm 0.00 in0.0 mm
04:00 AM 32.3°F0.2°C 25.3°F-3.7°C 75% Calm Calm -- 30.45 in1031.2 mb - 0.00 in0.0 mm 0.00 in0.0 mm
03:45 AM 32.1°F0.1°C 26.0°F-3.3°C 78% Calm Calm -- 30.45 in1031.2 mb - 0.00 in0.0 mm 0.00 in0.0 mm
03:30 AM 31.7°F-0.2°C 25.6°F-3.6°C 78% Calm Calm -- 30.46 in1031.5 mb - 0.00 in0.0 mm 0.00 in0.0 mm
03:15 AM 31.5°F-0.3°C 25.1°F-3.8°C 77% Calm Calm -- 30.46 in1031.5 mb - 0.00 in0.0 mm 0.00 in0.0 mm
03:00 AM 31.6°F-0.2°C 25.2°F-3.8°C 77% Calm Calm -- 30.46 in1031.5 mb - 0.00 in0.0 mm 0.00 in0.0 mm
02:45 AM 31.9°F-0.1°C 25.5°F-3.6°C 77% Calm Calm -- 30.46 in1031.5 mb - 0.00 in0.0 mm 0.00 in0.0 mm
02:30 AM 32.1°F0.1°C 25.7°F-3.5°C 77% Calm Calm -- 30.46 in1031.5 mb - 0.00 in0.0 mm 0.00 in0.0 mm
02:15 AM 32.2°F0.1°C 25.2°F-3.8°C 75% Calm Calm -- 30.46 in1031.5 mb - 0.00 in0.0 mm 0.00 in0.0 mm
02:00 AM 32.3°F0.2°C 24.2°F-4.3°C 72% Calm Calm -- 30.46 in1031.5 mb - 0.00 in0.0 mm 0.00 in0.0 mm
01:45 AM 32.2°F0.1°C 24.2°F-4.3°C 72% Calm Calm -- 30.45 in1031.2 mb - 0.00 in0.0 mm 0.00 in0.0 mm
01:30 AM 32.1°F0.1°C 24.4°F-4.2°C 73% Calm Calm -- 30.45 in1031.2 mb - 0.00 in0.0 mm 0.00 in0.0 mm
01:15 AM 32.2°F0.1°C 24.2°F-4.3°C 72% Calm Calm -- 30.44 in1030.8 mb - 0.00 in0.0 mm 0.00 in0.0 mm
01:00 AM 32.5°F0.3°C 24.5°F-4.2°C 72% Calm Calm -- 30.44 in1030.8 mb - 0.00 in0.0 mm 0.00 in0.0 mm
12:45 AM 32.7°F0.4°C 23.9°F-4.5°C 70% Calm Calm -- 30.44 in1030.8 mb - 0.00 in0.0 mm 0.00 in0.0 mm
12:30 AM 32.7°F0.4°C 23.9°F-4.5°C 70% Calm Calm -- 30.44 in1030.8 mb - 0.00 in0.0 mm 0.00 in0.0 mm
12:15 AM 32.8°F0.4°C 24.4°F-4.2°C 71% Calm Calm -- 30.44 in1030.8 mb - 0.00 in0.0 mm 0.00 in0.0 mm
12:01 AM 33.0°F0.6°C 25.0°F-3.9°C 72% Calm Calm -- 30.44 in1030.8 mb - 0.00 in0.0 mm 0.00 in0.0 mm